Time;durP1;ratioP1;P1;durP2;ratioP2;P2;SDS_P1;SDS_P2;PMS_P1;PMS_P2;Temp;Humidity;BMP_temperature;BMP_pressure;BME280_temperature;BME280_humidity;BME280_pressure;Samples;Min_cycle;Max_cycle;Signal;HPM_P1;HPM_P2
2020/12/06 00:01:36;;;;;;;334.23;72.63;;;;;;;7.96;88.60;101087.44;5011859;28;20064;-68
2020/12/06 00:04:06;;;;;;;424.35;73.13;;;;;;;8.08;88.21;101101.00;5006869;28;20032;-68
2020/12/06 00:06:31;;;;;;;323.10;75.80;;;;;;;7.91;88.50;101072.66;5002582;28;20057;-67
2020/12/06 00:08:57;;;;;;;304.05;70.65;;;;;;;8.10;88.51;101102.00;5004455;28;20053;-68
2020/12/06 00:11:23;;;;;;;341.35;72.30;;;;;;;8.09;88.17;101097.66;5003880;28;20426;-68
2020/12/06 00:13:48;;;;;;;308.50;69.90;;;;;;;8.18;88.06;101103.31;5013065;28;20088;-68
2020/12/06 00:16:18;;;;;;;314.70;74.32;;;;;;;8.22;87.87;101104.38;5009979;28;20494;-68
2020/12/06 00:18:44;;;;;;;299.30;71.40;;;;;;;8.11;87.75;101075.47;5026827;28;20030;-69
2020/12/06 00:21:11;;;;;;;289.40;69.20;;;;;;;8.28;87.40;101093.56;5021156;28;20467;-69
2020/12/06 00:23:37;;;;;;;324.38;72.28;;;;;;;8.28;87.36;101096.13;5009303;28;20027;-68
2020/12/06 00:26:03;;;;;;;313.70;73.15;;;;;;;8.25;87.41;101091.69;5011247;28;20033;-68
2020/12/06 00:28:28;;;;;;;426.15;75.65;;;;;;;8.24;87.49;101090.78;5012797;28;20491;-68
2020/12/06 00:30:54;;;;;;;406.75;77.35;;;;;;;8.01;87.47;101053.50;4995862;28;20037;-68
2020/12/06 00:33:19;;;;;;;348.55;72.43;;;;;;;7.99;87.45;101046.47;5004580;28;20030;-68
2020/12/06 00:35:45;;;;;;;317.55;67.28;;;;;;;8.22;87.47;101094.97;5011249;28;20053;-68
2020/12/06 00:38:10;;;;;;;272.33;70.07;;;;;;;8.25;86.82;101090.00;5009557;28;20014;-68
2020/12/06 00:40:35;;;;;;;281.70;66.05;;;;;;;8.27;87.06;101095.22;5007418;28;20479;-68
2020/12/06 00:43:02;;;;;;;268.38;66.53;;;;;;;8.27;86.67;101090.06;5007837;28;20026;-68
2020/12/06 00:45:27;;;;;;;273.30;63.92;;;;;;;8.33;86.66;101097.25;5009042;28;20487;-68
2020/12/06 00:47:53;;;;;;;227.18;64.13;;;;;;;8.11;86.42;101057.47;4996321;28;20041;-68
2020/12/06 00:50:18;;;;;;;250.82;64.32;;;;;;;8.14;86.45;101067.94;5005984;28;20026;-68
2020/12/06 00:52:44;;;;;;;261.90;65.78;;;;;;;8.17;87.06;101096.38;4997734;28;20026;-68
2020/12/06 00:55:09;;;;;;;266.02;69.10;;;;;;;8.12;87.00;101092.66;5012904;28;20026;-68
2020/12/06 00:57:34;;;;;;;249.48;69.95;;;;;;;8.15;87.24;101087.72;4998316;28;20500;-68
2020/12/06 01:00:00;;;;;;;244.63;66.50;;;;;;;8.16;87.50;101088.59;5040741;28;20037;-66
2020/12/06 01:02:25;;;;;;;257.83;67.40;;;;;;;8.17;87.42;101082.66;5006922;28;20164;-65
2020/12/06 01:04:51;;;;;;;272.60;67.38;;;;;;;8.21;87.43;101082.91;5010029;28;20030;-66
2020/12/06 01:07:16;;;;;;;232.02;64.70;;;;;;;8.25;87.22;101078.84;5012233;28;20096;-65
2020/12/06 01:09:42;;;;;;;240.63;65.85;;;;;;;8.28;87.04;101075.53;5012312;28;20065;-65
2020/12/06 01:12:07;;;;;;;245.23;65.50;;;;;;;8.27;86.72;101069.50;5012043;28;20061;-66
2020/12/06 01:14:32;;;;;;;234.00;64.00;;;;;;;8.26;86.65;101063.47;5012096;28;20111;-66
2020/12/06 01:16:58;;;;;;;244.82;64.38;;;;;;;8.15;86.78;101032.78;5012133;28;20033;-66
2020/12/06 01:19:23;;;;;;;229.88;62.50;;;;;;;8.33;86.59;101063.81;5011662;28;20030;-65
2020/12/06 01:21:52;;;;;;;226.30;61.80;;;;;;;8.15;86.38;101022.50;5011935;28;20029;-65
2020/12/06 01:24:19;;;;;;;220.70;63.67;;;;;;;8.32;86.22;101054.31;5010709;28;20045;-66
2020/12/06 01:26:48;;;;;;;216.10;61.10;;;;;;;8.37;86.00;101052.88;5011985;28;20040;-65
2020/12/06 01:29:14;;;;;;;214.48;61.85;;;;;;;8.42;86.18;101061.75;5011608;28;20492;-66
2020/12/06 01:31:46;;;;;;;203.00;58.95;;;;;;;8.39;85.82;101059.88;5011365;28;20039;-65
2020/12/06 01:34:12;;;;;;;215.43;61.25;;;;;;;8.38;85.89;101063.25;5011663;28;20026;-65
2020/12/06 01:36:37;;;;;;;209.35;61.22;;;;;;;8.42;85.90;101056.59;5011909;28;20125;-66
2020/12/06 01:39:03;;;;;;;191.40;58.35;;;;;;;8.43;85.76;101054.09;5011719;28;20091;-66
2020/12/06 01:41:28;;;;;;;202.23;62.03;;;;;;;8.36;85.83;101046.88;5024872;28;20030;-65
2020/12/06 01:43:58;;;;;;;199.68;57.20;;;;;;;8.35;85.86;101051.91;4997334;28;20480;-66
2020/12/06 01:46:24;;;;;;;197.55;61.85;;;;;;;8.35;85.98;101049.34;5008906;28;20022;-66
2020/12/06 01:48:52;;;;;;;189.20;57.85;;;;;;;8.40;86.04;101053.94;5009773;28;20116;-66
2020/12/06 01:51:19;;;;;;;178.75;57.15;;;;;;;8.40;85.53;101053.94;5010928;28;20499;-66
2020/12/06 01:53:47;;;;;;;191.40;57.78;;;;;;;8.47;85.71;101054.31;5011563;28;20472;-65
2020/12/06 01:56:12;;;;;;;176.45;55.65;;;;;;;8.48;85.08;101061.25;5011514;28;20037;-65
2020/12/06 01:58:39;;;;;;;166.68;54.58;;;;;;;8.51;84.72;101054.59;5011604;28;20030;-65
2020/12/06 02:01:04;;;;;;;175.05;56.33;;;;;;;8.48;84.82;101054.41;5009105;28;20468;-66
2020/12/06 02:03:30;;;;;;;171.63;54.08;;;;;;;8.51;85.09;101058.81;5011460;28;20105;-65
2020/12/06 02:05:56;;;;;;;151.65;53.95;;;;;;;8.50;84.94;101047.66;5010103;28;20018;-65
2020/12/06 02:08:21;;;;;;;147.95;54.83;;;;;;;8.31;85.07;101029.41;5011307;28;20026;-66
2020/12/06 02:10:47;;;;;;;148.10;54.50;;;;;;;8.44;85.30;101049.84;5011334;28;20434;-66
2020/12/06 02:13:12;;;;;;;142.90;51.50;;;;;;;8.29;85.32;101020.69;5011417;28;20041;-66
2020/12/06 02:15:38;;;;;;;137.65;52.83;;;;;;;8.39;85.57;101053.88;5011120;28;20078;-65
2020/12/06 02:18:03;;;;;;;146.50;51.22;;;;;;;8.31;85.60;101037.13;5011153;28;20467;-65
2020/12/06 02:20:29;;;;;;;151.43;55.55;;;;;;;8.29;85.92;101044.75;5010832;28;20415;-65
2020/12/06 02:22:54;;;;;;;145.18;56.38;;;;;;;8.23;86.32;101041.84;5011415;28;20108;-65
2020/12/06 02:25:19;;;;;;;160.30;61.30;;;;;;;8.13;86.65;101037.88;5011357;28;20030;-65
2020/12/06 02:27:45;;;;;;;149.75;54.00;;;;;;;8.11;87.06;101031.75;5011061;28;20053;-65
2020/12/06 02:30:12;;;;;;;152.88;53.45;;;;;;;7.93;86.99;100993.03;5010738;28;20491;-65
2020/12/06 02:32:37;;;;;;;146.75;55.05;;;;;;;8.16;87.09;101042.28;5010767;28;20026;-66
2020/12/06 02:35:04;;;;;;;159.75;55.35;;;;;;;8.18;87.09;101041.56;5010973;28;20036;-66
2020/12/06 02:37:29;;;;;;;154.40;55.60;;;;;;;8.19;86.92;101029.63;5011053;28;20161;-66
2020/12/06 02:39:55;;;;;;;169.95;57.50;;;;;;;8.20;86.84;101027.13;5010909;28;20053;-65
2020/12/06 02:42:20;;;;;;;161.07;58.25;;;;;;;8.28;86.79;101031.81;5011118;28;20037;-66
2020/12/06 02:44:46;;;;;;;160.77;55.20;;;;;;;8.32;86.68;101032.03;5013147;28;20037;-65
2020/12/06 02:47:11;;;;;;;139.90;54.13;;;;;;;8.36;86.15;101030.53;5014591;28;20072;-66
2020/12/06 02:49:40;;;;;;;149.32;53.55;;;;;;;8.39;85.70;101035.88;5014777;28;20029;-65
2020/12/06 02:52:06;;;;;;;137.52;53.58;;;;;;;8.21;85.95;101004.84;5014733;28;20037;-65
2020/12/06 02:54:33;;;;;;;137.50;53.45;;;;;;;8.34;85.90;101024.44;5013218;28;20029;-66
2020/12/06 02:56:58;;;;;;;143.00;51.85;;;;;;;8.42;85.90;101044.63;5014644;28;20102;-65
2020/12/06 02:59:23;;;;;;;135.13;52.45;;;;;;;8.32;85.90;101026.91;5014584;28;20046;-66
2020/12/06 03:01:49;;;;;;;138.20;51.25;;;;;;;8.27;85.65;101002.63;5014350;28;20470;-65
2020/12/06 03:04:14;;;;;;;136.40;52.30;;;;;;;8.45;85.62;101027.56;5014374;28;20506;-65
2020/12/06 03:06:40;;;;;;;132.38;50.83;;;;;;;8.49;85.19;101032.13;5014092;28;20033;-66
2020/12/06 03:09:05;;;;;;;130.95;51.65;;;;;;;8.50;84.88;101028.75;5014414;28;20022;-66
2020/12/06 03:11:31;;;;;;;126.40;51.50;;;;;;;8.44;85.11;101034.41;5014250;28;20021;-66
2020/12/06 03:13:56;;;;;;;114.50;47.38;;;;;;;8.35;85.83;101034.81;5013881;28;20046;-66
2020/12/06 03:16:21;;;;;;;115.45;46.20;;;;;;;8.34;86.68;101025.31;5014272;28;20468;-65
2020/12/06 03:18:47;;;;;;;173.20;87.22;;;;;;;8.40;87.22;101025.66;5013954;28;20483;-65
2020/12/06 03:21:12;;;;;;;96.50;39.67;;;;;;;8.32;87.84;101026.91;5013919;28;20022;-65
2020/12/06 03:23:38;;;;;;;90.07;43.88;;;;;;;8.31;88.56;101025.16;5014229;28;20408;-66
2020/12/06 03:26:03;;;;;;;56.65;31.80;;;;;;;8.38;89.22;101029.81;5013881;28;20033;-65
2020/12/06 03:28:29;;;;;;;39.42;22.95;;;;;;;8.45;90.13;101036.19;5013327;28;20033;-66
2020/12/06 03:30:54;;;;;;;36.40;22.10;;;;;;;8.35;90.18;100995.31;5013582;28;20029;-65
2020/12/06 03:33:20;;;;;;;45.55;23.60;;;;;;;8.59;90.10;101031.81;5014011;28;20022;-65
2020/12/06 03:35:45;;;;;;;36.50;20.73;;;;;;;8.68;89.87;101034.88;5012603;28;20021;-65
2020/12/06 03:38:11;;;;;;;33.28;21.88;;;;;;;8.71;89.58;101021.28;5014015;28;20447;-66
2020/12/06 03:40:36;;;;;;;36.63;21.27;;;;;;;8.77;89.68;101031.91;5013444;28;20018;-66
2020/12/06 03:43:02;;;;;;;47.90;24.02;;;;;;;8.81;89.47;101036.44;5013610;28;20021;-66
2020/12/06 03:45:27;;;;;;;46.63;25.27;;;;;;;8.64;89.07;101002.06;5013556;28;20476;-65
2020/12/06 03:47:55;;;;;;;53.80;27.30;;;;;;;8.67;88.86;100996.19;4999743;28;20030;-65
2020/12/06 03:50:22;;;;;;;42.58;24.63;;;;;;;8.85;88.59;101032.34;5013561;28;20105;-65
2020/12/06 03:52:48;;;;;;;50.38;26.92;;;;;;;8.89;88.46;101032.56;5013450;28;20030;-65
2020/12/06 03:55:13;;;;;;;43.70;23.85;;;;;;;8.93;88.17;101036.19;5013499;28;20045;-66
2020/12/06 03:57:39;;;;;;;47.42;24.55;;;;;;;8.73;88.18;101002.56;5012983;28;20480;-65
2020/12/06 04:00:05;;;;;;;43.85;26.10;;;;;;;8.73;88.46;101006.81;5013591;28;20030;-66
2020/12/06 04:02:30;;;;;;;41.72;21.95;;;;;;;8.58;88.54;100982.06;5013049;28;20030;-66
2020/12/06 04:04:55;;;;;;;40.58;23.00;;;;;;;8.65;88.90;101008.09;5013441;28;20029;-66
2020/12/06 04:07:21;;;;;;;49.97;26.00;;;;;;;8.85;88.98;101043.50;5013360;28;20034;-66
2020/12/06 04:09:49;;;;;;;44.38;28.63;;;;;;;8.86;89.06;101042.72;5012756;28;20036;-66
2020/12/06 04:12:15;;;;;;;44.42;23.70;;;;;;;8.73;88.94;101006.81;5012872;28;20422;-65
2020/12/06 04:14:40;;;;;;;40.95;23.15;;;;;;;8.96;88.66;101035.47;5011718;28;20049;-65
2020/12/06 04:17:06;;;;;;;45.70;25.30;;;;;;;8.94;88.58;101037.09;5010533;28;20044;-65
2020/12/06 04:19:31;;;;;;;43.00;25.40;;;;;;;8.92;88.53;101036.13;5013032;28;20029;-65
2020/12/06 04:21:57;;;;;;;39.67;24.05;;;;;;;8.96;88.47;101044.09;5012909;28;20476;-66
2020/12/06 04:24:23;;;;;;;47.95;24.70;;;;;;;9.03;88.26;101041.03;5012897;28;20040;-65
2020/12/06 04:26:48;;;;;;;42.78;23.67;;;;;;;9.09;87.74;101042.16;5012607;28;20029;-66
2020/12/06 04:29:14;;;;;;;45.05;24.40;;;;;;;8.98;88.03;101039.00;5012587;28;20112;-66
2020/12/06 04:31:39;;;;;;;48.97;23.75;;;;;;;8.97;88.40;101039.81;5012686;28;20033;-66
2020/12/06 04:34:05;;;;;;;40.70;24.40;;;;;;;8.99;88.28;101035.63;5012733;28;20034;-66
2020/12/06 04:36:31;;;;;;;38.47;23.30;;;;;;;9.04;88.26;101039.34;5012793;28;20399;-65
2020/12/06 04:38:57;;;;;;;36.38;21.95;;;;;;;9.12;87.87;101042.31;5012340;28;20069;-66
2020/12/06 04:41:25;;;;;;;33.92;20.70;;;;;;;9.13;87.80;101046.66;5012617;28;20065;-66
2020/12/06 04:43:50;;;;;;;34.90;22.35;;;;;;;9.17;87.62;101046.91;5012470;28;20404;-66
2020/12/06 04:46:17;;;;;;;30.42;20.17;;;;;;;9.08;87.35;101020.66;5012658;28;20025;-65
2020/12/06 04:49:03;;;;;;;33.80;20.85;;;;;;;9.23;87.20;101052.38;5012248;28;20030;-66
2020/12/06 04:51:37;;;;;;;31.23;20.58;;;;;;;9.25;86.83;101052.44;4999865;28;20038;-65
2020/12/06 04:54:04;;;;;;;28.70;19.33;;;;;;;9.24;86.76;101048.09;5026971;28;20400;-66
2020/12/06 04:56:30;;;;;;;37.35;23.92;;;;;;;9.25;86.75;101049.00;5012386;28;20045;-65
2020/12/06 04:59:02;;;;;;;31.70;20.35;;;;;;;9.25;86.76;101055.03;4993865;28;20034;-66
2020/12/06 05:01:34;;;;;;;34.60;22.35;;;;;;;9.28;86.57;101056.88;5011890;28;20029;-65
2020/12/06 05:04:08;;;;;;;32.85;19.80;;;;;;;9.17;86.98;101064.94;5012100;28;20484;-65
2020/12/06 05:06:34;;;;;;;33.78;18.88;;;;;;;9.12;86.70;101048.38;5010919;28;20038;-65
2020/12/06 05:09:02;;;;;;;29.52;19.00;;;;;;;9.25;86.74;101054.16;5012099;28;20025;-66
2020/12/06 05:11:28;;;;;;;32.17;18.35;;;;;;;9.20;86.59;101056.47;5012023;28;20159;-67
2020/12/06 05:13:53;;;;;;;28.08;19.25;;;;;;;9.09;86.92;101035.31;5012126;28;20117;-66
2020/12/06 05:16:20;;;;;;;30.25;19.63;;;;;;;9.27;86.57;101070.56;5010725;28;20471;-65
2020/12/06 05:18:46;;;;;;;29.98;19.98;;;;;;;8.89;86.61;101000.78;5012266;28;20013;-66
2020/12/06 05:21:11;;;;;;;27.73;20.70;;;;;;;9.25;86.75;101079.91;5011787;28;20037;-66
2020/12/06 05:23:37;;;;;;;34.95;19.10;;;;;;;9.23;86.61;101077.22;5011638;28;20026;-65
2020/12/06 05:26:02;;;;;;;34.33;19.63;;;;;;;9.09;86.65;101053.34;5011860;28;20025;-65
2020/12/06 05:28:29;;;;;;;30.92;20.60;;;;;;;9.30;86.38;101083.63;5011683;28;20413;-67
2020/12/06 05:31:00;;;;;;;32.78;20.83;;;;;;;9.22;86.71;101080.63;5010585;28;20026;-65
2020/12/06 05:33:25;;;;;;;30.20;18.02;;;;;;;9.18;86.84;101082.16;5011786;28;20080;-66
2020/12/06 05:35:58;;;;;;;34.90;20.38;;;;;;;9.15;87.00;101082.00;5011309;28;20022;-66
2020/12/06 05:38:23;;;;;;;35.03;20.83;;;;;;;9.15;86.98;101083.69;5011822;28;20119;-65
2020/12/06 05:40:49;;;;;;;32.72;19.33;;;;;;;8.92;87.30;101064.44;5011750;28;20053;-65
2020/12/06 05:43:16;;;;;;;28.30;18.73;;;;;;;9.05;87.39;101085.78;5011418;28;20083;-65
2020/12/06 05:45:45;;;;;;;28.60;19.35;;;;;;;9.00;87.78;101087.22;5011544;28;20033;-66
2020/12/06 05:48:10;;;;;;;28.83;19.15;;;;;;;8.98;87.80;101087.94;5010962;28;20104;-65
2020/12/06 05:50:36;;;;;;;28.58;17.77;;;;;;;8.95;88.08;101098.06;5011422;28;20030;-66
2020/12/06 05:53:01;;;;;;;30.00;17.63;;;;;;;8.60;88.10;101035.28;5011504;28;20028;-66
2020/12/06 05:55:28;;;;;;;27.98;17.67;;;;;;;8.85;88.10;101078.69;5011330;28;20032;-65
2020/12/06 05:57:55;;;;;;;28.17;17.92;;;;;;;8.90;88.31;101093.56;5011549;28;20022;-66
2020/12/06 06:00:21;;;;;;;31.60;19.38;;;;;;;8.47;88.06;101023.44;5025851;28;20038;-65
2020/12/06 06:02:54;;;;;;;29.25;17.15;;;;;;;8.81;88.03;101085.38;5011322;28;20111;-66
2020/12/06 06:05:22;;;;;;;30.85;15.43;;;;;;;8.90;87.99;101100.41;5011560;28;20530;-66
2020/12/06 06:07:48;;;;;;;26.45;16.48;;;;;;;8.76;88.06;101073.94;5011082;28;20029;-65
2020/12/06 06:10:17;;;;;;;25.63;16.73;;;;;;;8.94;88.18;101104.03;5010962;28;20113;-66
2020/12/06 06:12:46;;;;;;;29.85;18.65;;;;;;;8.72;87.87;101065.16;5011338;28;20113;-65
2020/12/06 06:15:13;;;;;;;29.13;18.55;;;;;;;8.95;87.96;101116.09;5011100;28;20049;-66
2020/12/06 06:17:40;;;;;;;25.73;17.85;;;;;;;8.98;87.79;101118.84;5012347;28;20053;-65
2020/12/06 06:20:05;;;;;;;32.35;20.08;;;;;;;8.99;87.83;101124.06;5015095;28;20021;-66
2020/12/06 06:22:35;;;;;;;29.77;19.88;;;;;;;8.99;87.88;101118.94;5015034;28;20446;-65
2020/12/06 06:25:01;;;;;;;34.58;20.20;;;;;;;9.04;87.79;101121.75;5030415;28;20116;-65
2020/12/06 06:27:38;;;;;;;30.77;20.77;;;;;;;9.05;87.78;101121.84;5015109;28;20037;-65
2020/12/06 06:30:08;;;;;;;30.30;20.77;;;;;;;9.01;87.80;101116.44;5014649;28;20480;-66
2020/12/06 06:32:34;;;;;;;30.35;19.38;;;;;;;8.94;87.94;101109.19;5014759;28;20076;-65
2020/12/06 06:35:03;;;;;;;27.40;18.67;;;;;;;8.97;87.95;101120.56;5014465;28;20033;-66
2020/12/06 06:37:30;;;;;;;31.75;18.88;;;;;;;8.78;88.13;101089.44;5013696;28;20034;-66
2020/12/06 06:40:01;;;;;;;33.20;19.63;;;;;;;8.93;87.88;101108.28;5014556;28;20052;-65
2020/12/06 06:42:28;;;;;;;31.13;21.08;;;;;;;8.99;87.71;101111.19;5013884;28;20403;-67
2020/12/06 06:45:08;;;;;;;30.25;19.17;;;;;;;9.00;87.91;101112.97;5014641;28;20034;-65
2020/12/06 06:47:41;;;;;;;32.95;19.35;;;;;;;9.00;87.86;101117.25;5009510;28;20026;-65
2020/12/06 06:50:10;;;;;;;33.08;19.80;;;;;;;8.99;87.94;101115.47;5012046;28;20120;-65
2020/12/06 06:52:39;;;;;;;34.08;20.45;;;;;;;8.82;87.80;101082.00;5009047;28;20114;-65
2020/12/06 06:55:05;;;;;;;34.25;21.67;;;;;;;8.77;87.70;101067.94;5011679;28;20040;-65
2020/12/06 06:57:32;;;;;;;29.98;19.98;;;;;;;9.04;87.56;101114.03;5016524;28;20034;-66
2020/12/06 06:59:59;;;;;;;34.13;20.77;;;;;;;9.04;87.36;101109.75;5016414;28;20025;-66
2020/12/06 07:02:30;;;;;;;33.03;19.08;;;;;;;8.90;87.15;101093.56;5014147;28;20022;-65
2020/12/06 07:04:55;;;;;;;31.15;19.27;;;;;;;9.07;87.20;101121.91;5031109;28;20057;-66
2020/12/06 07:07:54;;;;;;;30.65;20.33;;;;;;;9.14;87.00;101120.56;5013715;28;20392;-66
2020/12/06 07:10:22;;;;;;;33.85;21.48;;;;;;;9.11;86.92;101121.28;4988749;28;20034;-66
2020/12/06 07:12:53;;;;;;;29.85;20.48;;;;;;;9.19;86.38;101124.25;4990479;28;20034;-65
2020/12/06 07:15:21;;;;;;;36.88;21.75;;;;;;;9.28;86.18;101126.44;4989984;28;20473;-66
2020/12/06 07:17:47;;;;;;;30.40;20.23;;;;;;;9.28;85.79;101131.59;4991110;28;20074;-66
2020/12/06 07:20:14;;;;;;;31.75;20.75;;;;;;;9.31;85.64;101127.50;4989342;28;20044;-66
2020/12/06 07:22:41;;;;;;;29.13;19.95;;;;;;;9.30;85.44;101127.41;4989810;28;20026;-66
2020/12/06 07:25:08;;;;;;;34.25;20.77;;;;;;;9.23;85.55;101129.66;4989216;28;20134;-66
2020/12/06 07:27:34;;;;;;;28.65;19.25;;;;;;;9.31;85.56;101131.75;4989537;28;20117;-65
2020/12/06 07:30:01;;;;;;;30.02;20.80;;;;;;;9.33;85.56;101125.88;4989776;28;20041;-66
2020/12/06 07:32:26;;;;;;;36.25;19.83;;;;;;;9.20;85.17;101103.72;4989828;28;20085;-65
2020/12/06 07:34:52;;;;;;;36.65;19.63;;;;;;;9.31;85.10;101119.75;4991242;28;20026;-66
2020/12/06 07:37:18;;;;;;;29.92;19.23;;;;;;;9.31;85.19;101116.28;4986321;28;20073;-66
2020/12/06 07:39:46;;;;;;;37.95;19.63;;;;;;;9.33;85.10;101117.25;4973024;28;20116;-66
2020/12/06 07:42:23;;;;;;;28.35;19.00;;;;;;;9.36;85.42;101133.78;4988356;28;20050;-66
2020/12/06 07:44:51;;;;;;;29.70;17.65;;;;;;;9.42;85.06;101124.56;4990565;28;20026;-66
2020/12/06 07:47:19;;;;;;;27.55;17.70;;;;;;;9.39;85.01;101125.31;5012257;28;20487;-66
2020/12/06 07:49:59;;;;;;;28.85;16.83;;;;;;;9.37;85.12;101129.47;5013434;28;20101;-66
2020/12/06 07:52:35;;;;;;;26.40;17.88;;;;;;;9.18;84.95;101097.63;5012979;28;20057;-66
2020/12/06 07:55:06;;;;;;;31.83;17.85;;;;;;;9.34;84.99;101129.34;5013274;28;20057;-65
2020/12/06 07:57:41;;;;;;;27.60;16.58;;;;;;;9.34;84.60;101131.91;5012806;28;20037;-66
2020/12/06 08:00:12;;;;;;;28.45;18.10;;;;;;;9.10;84.86;101095.41;5011041;28;20018;-66
2020/12/06 08:02:42;;;;;;;26.55;17.13;;;;;;;9.27;85.05;101134.97;5016405;28;20025;-66
2020/12/06 08:05:11;;;;;;;;;;;;;;;9.29;84.98;101129.09;5013580;28;20022;-66
2020/12/06 08:07:41;;;;;;;23.33;15.95;;;;;;;9.28;85.02;101131.59;5014601;28;19971;-66
2020/12/06 08:10:12;;;;;;;29.33;17.42;;;;;;;9.11;85.09;101098.09;5014886;28;20120;-66
2020/12/06 08:12:41;;;;;;;26.90;16.48;;;;;;;9.18;85.24;101105.34;5012618;28;20567;-66
2020/12/06 08:15:07;;;;;;;27.52;16.52;;;;;;;9.28;85.06;101122.16;5012652;28;20053;-66
2020/12/06 08:17:50;;;;;;;27.63;17.58;;;;;;;9.33;84.99;101118.16;5012571;28;20096;-66
2020/12/06 08:20:20;;;;;;;67.15;53.42;;;;;;;9.31;84.98;101119.75;5011077;28;20108;-66
2020/12/06 08:22:50;;;;;;;60.97;42.88;;;;;;;9.45;84.40;101115.31;5012344;28;20029;-66
2020/12/06 08:25:19;;;;;;;70.40;47.53;;;;;;;9.48;84.06;101114.59;5012239;28;20026;-66
2020/12/06 08:27:45;;;;;;;;;;;;;;;9.50;84.01;101107.84;5004505;28;20034;-65
2020/12/06 08:30:12;;;;;;;31.45;21.70;;;;;;;9.46;83.56;101103.31;4992405;28;19964;-67
2020/12/06 08:32:38;;;;;;;31.52;22.75;;;;;;;9.51;83.90;101102.75;5009673;28;20021;-65
2020/12/06 08:35:03;;;;;;;44.92;30.90;;;;;;;9.55;83.57;101096.06;5016651;28;20038;-66
2020/12/06 08:37:34;;;;;;;46.42;38.53;;;;;;;9.38;83.62;101062.59;5013150;28;20084;-66
2020/12/06 08:40:04;;;;;;;36.45;26.77;;;;;;;9.57;83.25;101097.03;5009672;28;20045;-66
2020/12/06 08:42:29;;;;;;;33.40;22.08;;;;;;;9.67;82.82;101109.56;5011994;28;20385;-66
2020/12/06 08:44:58;;;;;;;35.92;25.83;;;;;;;9.71;82.88;101106.34;5017342;28;20049;-66
2020/12/06 08:47:26;;;;;;;26.17;18.90;;;;;;;9.72;82.83;101102.09;5011994;28;20038;-66
2020/12/06 08:50:03;;;;;;;30.40;21.98;;;;;;;9.59;82.36;101073.91;5016241;28;20097;-65
2020/12/06 08:52:28;;;;;;;29.73;20.20;;;;;;;9.76;82.29;101093.69;5012934;28;20033;-66
2020/12/06 08:54:54;;;;;;;36.97;22.08;;;;;;;9.76;82.46;101091.09;5009979;28;20037;-65
2020/12/06 08:57:25;;;;;;;31.08;22.48;;;;;;;9.57;82.50;101055.78;5024213;28;20044;-65
2020/12/06 08:59:50;;;;;;;33.90;23.48;;;;;;;9.64;82.18;101075.88;5028497;28;20111;-65
2020/12/06 09:02:23;;;;;;;29.67;21.38;;;;;;;9.77;82.17;101079.09;5028665;28;20495;-66
2020/12/06 09:04:50;;;;;;;28.00;21.40;;;;;;;9.86;81.95;101077.84;5025322;28;20034;-66
2020/12/06 09:07:17;;;;;;;26.35;18.60;;;;;;;9.88;81.62;101077.91;5009993;28;20077;-66
2020/12/06 09:09:43;;;;;;;36.33;23.02;;;;;;;9.77;81.84;101073.94;5023415;28;20056;-66
2020/12/06 09:12:09;;;;;;;26.52;19.85;;;;;;;9.77;81.92;101077.41;5025054;28;20523;-65
2020/12/06 09:14:34;;;;;;;30.70;18.95;;;;;;;9.84;81.96;101083.75;5011427;28;20077;-65
2020/12/06 09:17:00;;;;;;;30.10;21.30;;;;;;;9.85;81.41;101073.50;5028537;28;20021;-65
2020/12/06 09:19:25;;;;;;;34.08;20.92;;;;;;;9.63;81.79;101034.56;5010810;28;20388;-66
2020/12/06 09:21:51;;;;;;;24.23;17.73;;;;;;;9.81;81.80;101063.84;5028521;28;20041;-66
2020/12/06 09:24:16;;;;;;;38.75;29.63;;;;;;;9.83;81.77;101056.19;5013648;28;20036;-66
2020/12/06 09:26:41;;;;;;;29.52;18.52;;;;;;;9.92;80.93;101053.16;5010266;28;20044;-66
2020/12/06 09:29:07;;;;;;;28.23;18.08;;;;;;;9.82;81.53;101036.34;5010724;28;20096;-66
2020/12/06 09:31:32;;;;;;;22.98;16.65;;;;;;;9.83;81.39;101046.78;5010658;28;20030;-66
2020/12/06 09:33:58;;;;;;;53.00;30.52;;;;;;;9.82;82.06;101039.84;5010302;28;20036;-65
2020/12/06 09:36:25;;;;;;;27.42;16.45;;;;;;;9.81;81.77;101042.34;5010775;28;20025;-66
2020/12/06 09:38:50;;;;;;;28.80;19.05;;;;;;;9.82;81.50;101037.25;5010969;28;20487;-65
2020/12/06 09:41:16;;;;;;;38.15;26.55;;;;;;;9.84;81.75;101033.06;5010905;28;20109;-66
2020/12/06 09:43:43;;;;;;;29.52;20.00;;;;;;;9.80;81.60;101025.97;5012585;28;20040;-65
2020/12/06 09:46:09;;;;;;;23.40;16.45;;;;;;;9.84;81.44;101027.00;5015282;28;20049;-65
2020/12/06 09:48:35;;;;;;;24.90;17.88;;;;;;;9.78;81.56;101021.56;5010596;28;20029;-66
2020/12/06 09:51:00;;;;;;;28.50;18.02;;;;;;;9.81;81.56;101026.88;5008648;28;20099;-66
2020/12/06 09:53:26;;;;;;;24.35;17.17;;;;;;;9.80;81.56;101025.09;5015298;28;20111;-66
2020/12/06 09:55:51;;;;;;;27.50;19.23;;;;;;;9.80;81.50;101025.97;5010888;28;20415;-66
2020/12/06 09:58:17;;;;;;;26.80;18.67;;;;;;;9.76;81.68;101018.00;5010707;28;20036;-65
2020/12/06 10:00:42;;;;;;;25.83;18.40;;;;;;;9.79;81.51;101019.03;5007771;28;20038;-65
2020/12/06 10:03:07;;;;;;;21.85;17.70;;;;;;;9.55;81.67;100983.50;5001609;28;20061;-67
2020/12/06 10:05:33;;;;;;;31.05;17.83;;;;;;;9.75;81.83;101016.25;5011658;28;20084;-67
2020/12/06 10:07:58;;;;;;;25.48;16.55;;;;;;;9.80;81.58;101015.66;5011652;28;20034;-68
2020/12/06 10:10:24;;;;;;;27.45;18.80;;;;;;;9.79;81.83;101016.47;5026722;28;20033;-68
2020/12/06 10:12:49;;;;;;;24.90;16.10;;;;;;;9.77;81.62;101020.69;5011635;28;20034;-67
2020/12/06 10:15:15;;;;;;;24.02;16.48;;;;;;;9.79;81.64;101024.19;5005723;28;20539;-67
2020/12/06 10:17:40;;;;;;;26.98;18.00;;;;;;;9.85;81.63;101021.91;5000166;28;20037;-67
2020/12/06 10:20:08;;;;;;;27.63;18.63;;;;;;;9.91;81.54;101010.16;5001161;28;20096;-67
2020/12/06 10:22:34;;;;;;;27.73;19.25;;;;;;;9.91;81.08;101008.47;5000702;28;20060;-66
2020/12/06 10:25:00;;;;;;;23.50;16.63;;;;;;;9.96;81.39;101019.00;5002068;28;20050;-67
2020/12/06 10:27:25;;;;;;;32.50;20.50;;;;;;;10.02;81.23;101019.31;5000681;28;20030;-67
2020/12/06 10:29:51;;;;;;;25.23;17.33;;;;;;;10.06;80.44;101003.16;5001112;28;20026;-67
2020/12/06 10:32:16;;;;;;;26.58;17.27;;;;;;;10.11;80.37;101011.97;5002247;28;20392;-67
2020/12/06 10:34:42;;;;;;;24.08;16.75;;;;;;;10.10;80.07;101005.06;5002458;28;20022;-67
2020/12/06 10:37:07;;;;;;;27.05;18.02;;;;;;;10.06;80.22;100999.69;5038078;28;20102;-67
2020/12/06 10:39:33;;;;;;;27.98;20.60;;;;;;;9.99;80.22;101001.06;5037786;28;20068;-67
2020/12/06 10:41:58;;;;;;;27.60;19.77;;;;;;;9.80;80.31;100969.25;5042378;28;20094;-67
2020/12/06 10:44:25;;;;;;;26.70;18.27;;;;;;;9.94;80.14;100998.28;5048639;28;20086;-67
2020/12/06 10:46:52;;;;;;;26.60;18.20;;;;;;;9.97;80.18;100997.53;5048525;28;20044;-67
2020/12/06 10:49:18;;;;;;;26.77;18.38;;;;;;;9.93;80.18;100991.38;5046005;28;20040;-68
2020/12/06 10:51:46;;;;;;;27.27;16.58;;;;;;;9.93;80.42;100988.78;5046740;28;20041;-68
2020/12/06 10:54:11;;;;;;;24.48;16.67;;;;;;;9.93;80.52;100980.16;5045940;28;20166;-68
2020/12/06 10:56:38;;;;;;;25.95;18.38;;;;;;;9.75;80.14;100947.50;5045339;28;20104;-68
2020/12/06 10:59:04;;;;;;;24.15;16.30;;;;;;;9.73;79.99;100919.91;5047239;28;20029;-67
2020/12/06 11:01:34;;;;;;;23.83;16.48;;;;;;;9.96;79.87;100964.84;5047397;28;20021;-67
2020/12/06 11:04:01;;;;;;;22.20;15.73;;;;;;;10.03;80.16;100972.03;5046661;28;20039;-68
2020/12/06 11:06:27;;;;;;;25.27;16.48;;;;;;;10.07;80.00;100978.22;5047828;28;20550;-65
2020/12/06 11:08:53;;;;;;;29.75;18.50;;;;;;;10.06;79.80;100958.41;5018818;28;20030;-66
2020/12/06 11:11:20;;;;;;;26.95;16.17;;;;;;;10.12;79.02;100969.00;5013789;28;20484;-65
2020/12/06 11:13:46;;;;;;;26.75;17.20;;;;;;;10.15;79.80;100962.28;5013220;28;20065;-66